LPMR

Monte Real Airport

Portugal
TAF LPMR 141703Z 1418/1518 24008KT 9999 FEW025 BECMG 1418/1420 18008KT PROB40 TEMPO 1503/1506 4000 SHRA SCT010 BKN014 FEW020TCU BECMG 1505/1508 18015KT TEMPO 1512/1518 19015G25KT 7000 -RADZ SCT008 BKN014
Issued Valid From Valid To
Dec-14 @ 17:03 UTC
(5 hours ago)
Dec-14 @ 18:00 UTC
(4 hours ago)
Dec-15 @ 18:00 UTC
(in 20 hours)
Dec-14 @ 18:00 to Dec-15 @ 18:00
TAF LPMR 141703Z 1418/1518 24008KT 9999 FEW025
Wind Visibility Clouds
240° at 8 knots 10,000+ meters
  • Few at 2,500' AGL
Becoming Dec-14 @ 18:00 to Dec-15 @ 05:00
BECMG 1418/1420 18008KT
Wind Visibility Clouds
180° at 8 knots 10,000+ meters
  • Few at 2,500' AGL
Temporary  (Probability 40%) Dec-15 @ 03:00 to Dec-15 @ 06:00
PROB40 TEMPO 1503/1506 4000 SHRA SCT010 BKN014 FEW020TCU
Visibility Clouds Conditions
4,007 meters
  • Scattered at 1,000' AGL
  • Broken at 1,400' AGL
  • Few at 2,000' AGL
  • Rain
Becoming Dec-15 @ 05:00 to Dec-15 @ 18:00
BECMG 1505/1508 18015KT
Wind Visibility Clouds
180° at 15 knots 10,000+ meters
  • Few at 2,500' AGL
Temporary Dec-15 @ 12:00 to Dec-15 @ 18:00
TEMPO 1512/1518 19015G25KT 7000 -RADZ SCT008 BKN014
Wind Visibility Clouds Conditions
190° at 15 knots
 Gusting to 25 knots
7,001 meters
  • Scattered at 800' AGL
  • Broken at 1,400' AGL
  • Light Rain
  • Light Drizzle
TAF LPMR 141703Z 1418/1518 24008KT 9999 FEW025 BECMG 1418/1420 18008KT PROB40 TEMPO 1503/1506 4000 SHRA SCT010 BKN014 FEW020TCU BECMG 1505/1508 18015KT TEMPO 1512/1518 19015G25KT 7000 -RADZ SCT008 BKN014
Issued Dec-14 @ 17:03 UTC
(5 hours ago)
Valid From Dec-14 @ 18:00 UTC
(4 hours ago)
Valid To Dec-15 @ 18:00 UTC
(in 20 hours)
Dec-14 @ 18:00 - Dec-15 @ 18:00
Wind Visibility
240° at 8 knots 10,000+ meters
Clouds
  • Few at 2,500' AGL
Becoming Dec-14 @ 18:00 - Dec-15 @ 05:00
Wind Visibility
180° at 8 knots 10,000+ meters
Clouds
  • Few at 2,500' AGL
Probability 40% Temporary Dec-15 @ 03:00 - Dec-15 @ 06:00
Clouds
  • Scattered at 1,000' AGL
  • Broken at 1,400' AGL
  • Few at 2,000' AGL
Conditions
  • Rain
Becoming Dec-15 @ 05:00 - Dec-15 @ 18:00
Wind Visibility
180° at 15 knots 10,000+ meters
Clouds
  • Few at 2,500' AGL
Temporary Dec-15 @ 12:00 - Dec-15 @ 18:00
Wind Visibility
190° at 15 knots
 Gusting to 25 knots
7,001 meters
Clouds
  • Scattered at 800' AGL
  • Broken at 1,400' AGL
Conditions
  • Light Rain
  • Light Drizzle